Time;durP1;ratioP1;P1;durP2;ratioP2;P2;SDS_P1;SDS_P2;PMS_P1;PMS_P2;Temp;Humidity;BMP_temperature;BMP_pressure;BME280_temperature;BME280_humidity;BME280_pressure;Samples;Min_cycle;Max_cycle;Signal;HPM_P1;HPM_P2
2024/03/15 00:00:01;;;;;;;17.23;8.83;;;;;;;;;;5013780;28;20428;-78
2024/03/15 06:02:21;;;;;;;21.90;9.13;;;;;;;;;;5120094;23;20490;-75
2024/03/15 06:04:47;;;;;;;17.60;9.73;;;;;;;;;;4994154;28;20419;-75
2024/03/15 06:07:13;;;;;;;18.40;8.50;;;;;;;;;;4993478;28;20494;-76
2024/03/15 06:09:41;;;;;;;22.10;10.57;;;;;;;;;;4995032;28;20545;-76
2024/03/15 06:12:07;;;;;;;18.03;9.43;;;;;;;;;;4995320;28;20729;-75
2024/03/15 06:14:33;;;;;;;13.57;8.80;;;;;;;;;;4995341;28;20399;-76
2024/03/15 06:16:59;;;;;;;19.23;8.50;;;;;;;;;;4995085;28;20993;-76
2024/03/15 06:19:25;;;;;;;20.70;7.70;;;;;;;;;;4995062;28;20410;-76
2024/03/15 06:21:51;;;;;;;17.27;8.63;;;;;;;;;;4993813;28;20834;-75
2024/03/15 06:24:20;;;;;;;16.00;8.37;;;;;;;;;;4993682;28;20791;-76
2024/03/15 06:26:52;;;;;;;18.23;9.13;;;;;;;;;;4994682;28;20454;-75
2024/03/15 06:29:31;;;;;;;29.87;9.10;;;;;;;;;;4994826;28;20407;-75
2024/03/15 06:31:59;;;;;;;21.87;8.47;;;;;;;;;;4994770;28;20568;-76
2024/03/15 06:34:27;;;;;;;17.80;8.47;;;;;;;;;;4994939;28;20414;-76
2024/03/15 06:36:54;;;;;;;13.97;7.03;;;;;;;;;;4994694;28;20439;-75
2024/03/15 06:42:35;;;;;;;14.60;7.90;;;;;;;;;;4994917;28;20434;-75
2024/03/15 06:45:03;;;;;;;25.13;9.70;;;;;;;;;;4990962;28;20445;-75
2024/03/15 06:47:31;;;;;;;28.07;8.03;;;;;;;;;;4989474;28;21130;-75
2024/03/15 06:50:30;;;;;;;26.90;8.83;;;;;;;;;;4974100;28;20420;-76
2024/03/15 06:52:54;;;;;;;14.13;8.30;;;;;;;;;;4974747;28;20467;-76
2024/03/15 06:55:20;;;;;;;24.77;7.93;;;;;;;;;;4974105;28;20420;-75
2024/03/15 06:57:48;;;;;;;17.13;7.93;;;;;;;;;;4974874;28;20459;-76
2024/03/15 07:00:15;;;;;;;18.00;9.13;;;;;;;;;;4974739;28;20418;-76
2024/03/15 07:02:43;;;;;;;29.23;8.67;;;;;;;;;;4974872;28;20753;-76
2024/03/15 07:05:13;;;;;;;25.00;9.27;;;;;;;;;;4974531;28;20435;-76
2024/03/15 07:07:40;;;;;;;25.43;7.90;;;;;;;;;;4974860;28;20463;-76
2024/03/15 07:10:06;;;;;;;22.40;9.07;;;;;;;;;;4974572;28;20408;-76
2024/03/15 07:12:32;;;;;;;23.10;8.47;;;;;;;;;;4974383;28;20432;-76
2024/03/15 07:14:58;;;;;;;22.00;7.90;;;;;;;;;;4974390;28;20899;-76
2024/03/15 07:17:24;;;;;;;14.70;8.37;;;;;;;;;;4974253;28;20463;-76
2024/03/15 07:19:50;;;;;;;19.47;6.83;;;;;;;;;;4974357;28;20416;-76
2024/03/15 07:22:17;;;;;;;15.90;7.83;;;;;;;;;;4974325;28;20456;-76
2024/03/15 07:24:48;;;;;;;13.93;7.93;;;;;;;;;;4976729;28;20408;-76
2024/03/15 07:27:14;;;;;;;14.77;7.60;;;;;;;;;;4979723;28;20475;-76
2024/03/15 07:29:42;;;;;;;14.20;6.73;;;;;;;;;;4979124;28;20436;-76
2024/03/15 07:32:08;;;;;;;14.97;8.00;;;;;;;;;;4978316;28;20436;-76
2024/03/15 07:34:34;;;;;;;16.80;6.23;;;;;;;;;;4977463;28;20487;-76
2024/03/15 07:37:01;;;;;;;22.43;8.10;;;;;;;;;;4976597;28;20930;-75
2024/03/15 07:39:29;;;;;;;10.50;6.30;;;;;;;;;;4973903;28;20451;-76
2024/03/15 07:42:00;;;;;;;14.70;7.87;;;;;;;;;;4975942;28;20443;-76
2024/03/15 07:44:27;;;;;;;10.73;5.80;;;;;;;;;;4976064;28;20424;-76
2024/03/15 07:46:53;;;;;;;11.07;5.50;;;;;;;;;;4975703;28;20467;-76
2024/03/15 07:49:19;;;;;;;7.90;4.73;;;;;;;;;;4974500;28;20411;-76
2024/03/15 07:51:46;;;;;;;12.50;4.83;;;;;;;;;;4972589;28;20444;-76
2024/03/15 07:54:12;;;;;;;13.90;4.87;;;;;;;;;;4973717;28;20924;-76
2024/03/15 07:56:38;;;;;;;11.20;4.63;;;;;;;;;;4973302;28;20891;-76
2024/03/15 07:59:04;;;;;;;5.50;4.23;;;;;;;;;;4973548;28;20471;-76
2024/03/15 08:01:33;;;;;;;9.30;4.77;;;;;;;;;;4973297;28;20961;-76
2024/03/15 08:03:59;;;;;;;12.03;4.87;;;;;;;;;;4974369;28;20414;-75
2024/03/15 08:06:26;;;;;;;12.80;5.20;;;;;;;;;;4973320;28;20807;-78
2024/03/15 08:08:52;;;;;;;12.07;5.40;;;;;;;;;;4972322;28;20499;-76
2024/03/15 08:11:18;;;;;;;15.57;6.67;;;;;;;;;;4972137;28;20513;-76
2024/03/15 08:13:46;;;;;;;12.87;6.43;;;;;;;;;;4973448;28;20419;-76
2024/03/15 08:16:18;;;;;;;21.87;6.43;;;;;;;;;;4973233;28;20427;-76
2024/03/15 08:18:48;;;;;;;13.60;5.37;;;;;;;;;;4972026;28;20486;-76
2024/03/15 08:21:17;;;;;;;17.80;7.00;;;;;;;;;;4973079;28;20459;-76
2024/03/15 08:23:44;;;;;;;16.20;6.57;;;;;;;;;;4973194;28;20989;-76
2024/03/15 08:26:10;;;;;;;11.67;6.13;;;;;;;;;;4972916;28;20823;-76
2024/03/15 08:28:37;;;;;;;12.07;6.43;;;;;;;;;;4973116;28;20412;-76
2024/03/15 08:31:03;;;;;;;23.60;5.90;;;;;;;;;;4971937;28;20443;-76
2024/03/15 08:33:29;;;;;;;9.33;5.43;;;;;;;;;;4973223;28;20766;-76
2024/03/15 08:35:56;;;;;;;11.50;5.87;;;;;;;;;;4973020;28;20427;-74
2024/03/15 08:38:22;;;;;;;17.27;5.67;;;;;;;;;;4972969;28;20783;-75
2024/03/15 08:40:48;;;;;;;9.80;4.97;;;;;;;;;;4972903;28;20436;-75
2024/03/15 08:43:15;;;;;;;6.30;4.10;;;;;;;;;;4973025;28;20835;-74
2024/03/15 08:45:40;;;;;;;10.13;3.87;;;;;;;;;;4987501;28;20438;-75
2024/03/15 08:48:07;;;;;;;11.03;3.27;;;;;;;;;;5003951;28;20553;-75
2024/03/15 08:50:33;;;;;;;6.33;3.53;;;;;;;;;;5010896;28;20470;-75
2024/03/15 08:52:59;;;;;;;5.70;3.07;;;;;;;;;;5012075;28;20406;-74
2024/03/15 08:55:26;;;;;;;6.00;3.00;;;;;;;;;;5011562;28;20410;-75
2024/03/15 08:57:52;;;;;;;6.30;2.60;;;;;;;;;;5012214;28;20409;-75
2024/03/15 09:00:18;;;;;;;6.80;3.20;;;;;;;;;;5011721;28;20805;-75
2024/03/15 09:02:44;;;;;;;6.43;2.70;;;;;;;;;;5012154;28;20501;-74
2024/03/15 09:05:10;;;;;;;4.10;2.47;;;;;;;;;;5011610;28;20548;-74
2024/03/15 09:07:36;;;;;;;7.37;2.50;;;;;;;;;;5017867;28;20445;-75
2024/03/15 09:10:15;;;;;;;5.90;2.63;;;;;;;;;;5039743;28;20990;-75
2024/03/15 09:12:44;;;;;;;9.47;3.10;;;;;;;;;;5039648;28;20421;-76
2024/03/15 09:15:19;;;;;;;3.87;2.40;;;;;;;;;;5018572;28;20421;-77
2024/03/15 09:17:46;;;;;;;3.30;2.10;;;;;;;;;;5017029;28;20878;-77
2024/03/15 09:20:33;;;;;;;5.80;3.23;;;;;;;;;;5016250;28;20491;-74
2024/03/15 09:23:01;;;;;;;4.93;2.50;;;;;;;;;;5016339;28;20417;-75
2024/03/15 09:25:27;;;;;;;4.37;2.40;;;;;;;;;;5015407;28;20406;-75
2024/03/15 09:27:53;;;;;;;16.63;2.60;;;;;;;;;;5014337;28;20746;-75
2024/03/15 09:33:09;;;;;;;3.67;2.53;;;;;;;;;;5015456;28;20425;-75
2024/03/15 09:35:40;;;;;;;4.23;2.10;;;;;;;;;;5014973;28;20410;-75
2024/03/15 09:38:06;;;;;;;5.20;2.10;;;;;;;;;;5014888;28;20429;-75
2024/03/15 09:40:33;;;;;;;4.77;2.50;;;;;;;;;;5014832;28;20913;-75
2024/03/15 09:42:59;;;;;;;3.03;2.00;;;;;;;;;;5014978;28;20409;-76
2024/03/15 09:45:26;;;;;;;2.70;2.30;;;;;;;;;;5014807;28;20492;-75
2024/03/15 09:47:52;;;;;;;3.50;2.00;;;;;;;;;;5015006;28;20569;-75
2024/03/15 09:50:21;;;;;;;6.00;2.70;;;;;;;;;;5014760;28;20515;-75
2024/03/15 09:52:49;;;;;;;2.80;1.93;;;;;;;;;;5014905;28;20430;-75
2024/03/15 09:55:19;;;;;;;2.20;1.67;;;;;;;;;;5013511;28;20449;-75
2024/03/15 09:57:46;;;;;;;5.30;1.63;;;;;;;;;;5014896;28;20798;-75
2024/03/15 10:00:21;;;;;;;3.47;2.10;;;;;;;;;;5014474;28;20414;-75
2024/03/15 10:02:48;;;;;;;10.93;1.60;;;;;;;;;;5014566;28;20418;-76
2024/03/15 10:05:14;;;;;;;3.37;1.70;;;;;;;;;;5014326;28;20425;-76
2024/03/15 10:07:41;;;;;;;6.90;1.83;;;;;;;;;;5014417;28;20457;-76
2024/03/15 10:10:13;;;;;;;5.60;2.30;;;;;;;;;;5014688;28;20418;-76
2024/03/15 10:12:45;;;;;;;4.73;1.87;;;;;;;;;;5017718;28;20410;-76
2024/03/15 10:15:12;;;;;;;2.23;1.63;;;;;;;;;;5015862;28;20461;-76
2024/03/15 10:17:41;;;;;;;5.00;1.80;;;;;;;;;;5014130;28;20951;-76
2024/03/15 10:20:12;;;;;;;3.70;2.00;;;;;;;;;;5013920;28;20909;-76
2024/03/15 10:22:41;;;;;;;4.10;1.80;;;;;;;;;;5014374;28;20418;-76
2024/03/15 10:25:13;;;;;;;4.30;1.80;;;;;;;;;;5014105;28;20413;-76
2024/03/15 10:27:40;;;;;;;5.23;1.70;;;;;;;;;;5014394;28;20489;-76
2024/03/15 10:30:14;;;;;;;3.57;1.67;;;;;;;;;;5014661;28;20421;-76
2024/03/15 10:32:41;;;;;;;5.20;2.17;;;;;;;;;;5014800;28;20420;-76
2024/03/15 10:35:12;;;;;;;4.47;1.63;;;;;;;;;;5014319;28;20421;-76
2024/03/15 10:37:39;;;;;;;2.00;1.70;;;;;;;;;;5014679;28;20413;-76
2024/03/15 10:40:09;;;;;;;2.07;1.60;;;;;;;;;;5012864;28;20500;-76
2024/03/15 10:42:35;;;;;;;4.53;1.70;;;;;;;;;;5014632;28;20742;-75
2024/03/15 10:45:01;;;;;;;2.87;1.50;;;;;;;;;;5005946;28;20439;-76
2024/03/15 10:47:28;;;;;;;4.70;1.70;;;;;;;;;;5004845;28;20489;-75
2024/03/15 10:49:54;;;;;;;4.33;1.83;;;;;;;;;;5014711;28;20417;-75
2024/03/15 10:52:21;;;;;;;2.10;1.83;;;;;;;;;;5017954;28;20422;-75
2024/03/15 10:54:49;;;;;;;4.20;1.57;;;;;;;;;;5017213;28;20495;-75
2024/03/15 10:57:15;;;;;;;6.93;1.90;;;;;;;;;;5017233;28;20414;-75
2024/03/15 10:59:42;;;;;;;6.43;1.90;;;;;;;;;;5014297;28;20426;-75
2024/03/15 11:02:09;;;;;;;3.77;1.70;;;;;;;;;;5014155;28;20461;-75
2024/03/15 11:04:35;;;;;;;1.80;1.53;;;;;;;;;;5014435;28;20505;-75
2024/03/15 11:07:01;;;;;;;2.17;1.70;;;;;;;;;;5013862;28;21032;-75
2024/03/15 11:09:28;;;;;;;4.07;1.90;;;;;;;;;;5013411;28;20468;-75
2024/03/15 11:12:00;;;;;;;3.10;1.70;;;;;;;;;;5013122;28;20430;-75
2024/03/15 11:14:26;;;;;;;3.93;1.60;;;;;;;;;;5013591;28;20410;-75
2024/03/15 11:16:56;;;;;;;3.90;2.57;;;;;;;;;;5012806;28;20414;-75
2024/03/15 11:19:22;;;;;;;2.60;1.93;;;;;;;;;;5012953;28;20437;-75
2024/03/15 11:21:48;;;;;;;6.10;2.00;;;;;;;;;;5013130;28;20434;-75
2024/03/15 11:24:15;;;;;;;3.70;2.30;;;;;;;;;;5013020;28;20414;-75
2024/03/15 11:26:41;;;;;;;3.13;1.83;;;;;;;;;;5012795;28;20837;-75
2024/03/15 11:29:17;;;;;;;5.43;2.10;;;;;;;;;;5012676;28;20618;-75
2024/03/15 11:31:46;;;;;;;3.70;2.07;;;;;;;;;;5013076;28;20500;-75
2024/03/15 11:34:12;;;;;;;3.57;2.20;;;;;;;;;;5012862;28;20406;-75
2024/03/15 11:36:38;;;;;;;6.23;2.50;;;;;;;;;;5012737;28;20464;-75
2024/03/15 11:39:09;;;;;;;2.90;1.67;;;;;;;;;;5012953;28;20418;-75
2024/03/15 11:41:38;;;;;;;6.93;2.23;;;;;;;;;;5015348;28;20434;-76
2024/03/15 11:44:05;;;;;;;2.50;1.90;;;;;;;;;;5012894;28;20418;-76
2024/03/15 11:46:32;;;;;;;3.40;2.10;;;;;;;;;;5012601;28;20479;-76
2024/03/15 11:49:02;;;;;;;4.80;2.53;;;;;;;;;;5012790;28;20911;-75
2024/03/15 11:51:28;;;;;;;3.27;2.30;;;;;;;;;;5012840;28;20851;-75
2024/03/15 11:53:54;;;;;;;2.60;1.70;;;;;;;;;;5013213;28;20406;-75
2024/03/15 11:56:21;;;;;;;5.60;2.10;;;;;;;;;;5012743;28;20468;-75
2024/03/15 11:58:48;;;;;;;2.60;2.00;;;;;;;;;;5013054;28;20972;-75
2024/03/15 12:01:15;;;;;;;4.90;2.20;;;;;;;;;;5012715;28;20570;-76
2024/03/15 12:03:41;;;;;;;4.37;1.93;;;;;;;;;;5013061;28;20479;-76
2024/03/15 12:06:08;;;;;;;3.10;2.07;;;;;;;;;;5013971;28;20449;-76
2024/03/15 12:08:34;;;;;;;5.70;2.00;;;;;;;;;;5011834;28;20454;-76
2024/03/15 12:11:00;;;;;;;2.30;1.50;;;;;;;;;;5012662;28;20484;-74
2024/03/15 12:13:28;;;;;;;4.00;2.57;;;;;;;;;;5011078;28;20425;-75
2024/03/15 12:15:54;;;;;;;5.10;2.23;;;;;;;;;;5028215;23;20490;-73
2024/03/15 12:18:21;;;;;;;3.50;2.30;;;;;;;;;;4993432;28;20403;-72
2024/03/15 12:20:50;;;;;;;3.90;1.63;;;;;;;;;;4993747;28;20407;-72
2024/03/15 12:23:17;;;;;;;3.30;2.10;;;;;;;;;;4992270;28;20529;-70
2024/03/15 12:25:43;;;;;;;4.77;2.00;;;;;;;;;;4993359;28;20427;-71
2024/03/15 12:28:12;;;;;;;3.97;2.17;;;;;;;;;;4999538;28;20422;-72
2024/03/15 12:30:42;;;;;;;4.20;2.00;;;;;;;;;;4996575;28;20926;-71
2024/03/15 12:33:11;;;;;;;3.00;1.90;;;;;;;;;;4995324;28;20417;-74
2024/03/15 12:35:38;;;;;;;3.77;1.70;;;;;;;;;;4992304;28;20474;-72
2024/03/15 12:38:05;;;;;;;4.33;1.80;;;;;;;;;;4993141;28;20415;-72
2024/03/15 12:40:31;;;;;;;4.33;1.70;;;;;;;;;;4993463;28;20498;-71
2024/03/15 12:42:58;;;;;;;3.23;1.70;;;;;;;;;;4991334;28;20419;-72
2024/03/15 12:45:24;;;;;;;4.07;1.70;;;;;;;;;;4992103;28;21023;-71
2024/03/15 12:47:50;;;;;;;3.50;1.87;;;;;;;;;;4998088;28;20465;-70
2024/03/15 12:50:16;;;;;;;6.17;2.13;;;;;;;;;;4993875;28;20453;-73
2024/03/15 12:52:42;;;;;;;4.00;1.70;;;;;;;;;;4992405;28;20712;-69
2024/03/15 12:55:14;;;;;;;5.43;2.00;;;;;;;;;;4991535;28;20980;-70
2024/03/15 12:57:40;;;;;;;2.57;1.70;;;;;;;;;;4992266;28;20815;-70
2024/03/15 13:00:11;;;;;;;3.97;1.90;;;;;;;;;;4993047;28;20415;-70
2024/03/15 13:02:37;;;;;;;4.50;1.83;;;;;;;;;;4993285;28;20829;-71
2024/03/15 13:05:08;;;;;;;3.87;2.20;;;;;;;;;;4992896;28;20415;-71
2024/03/15 13:07:34;;;;;;;2.30;1.93;;;;;;;;;;4992992;28;20546;-71
2024/03/15 13:10:00;;;;;;;3.27;1.93;;;;;;;;;;4993899;28;20925;-69
2024/03/15 13:12:26;;;;;;;9.60;2.20;;;;;;;;;;4992317;28;20502;-71
2024/03/15 13:14:54;;;;;;;4.53;2.23;;;;;;;;;;4993842;28;20418;-71
2024/03/15 13:17:20;;;;;;;3.50;1.80;;;;;;;;;;4991379;28;20494;-71
2024/03/15 13:19:46;;;;;;;5.67;2.13;;;;;;;;;;4993089;28;20461;-72
2024/03/15 13:22:11;;;;;;;4.20;2.50;;;;;;;;;;4993256;28;20425;-70
2024/03/15 13:24:38;;;;;;;7.93;2.33;;;;;;;;;;4997051;28;20550;-72
2024/03/15 13:27:05;;;;;;;2.57;1.70;;;;;;;;;;4998060;28;20541;-70
2024/03/15 13:29:31;;;;;;;4.90;2.10;;;;;;;;;;4996532;28;20411;-75
2024/03/15 13:31:57;;;;;;;5.20;2.00;;;;;;;;;;4997252;28;20411;-72
2024/03/15 13:34:24;;;;;;;3.60;2.03;;;;;;;;;;4993341;28;20414;-69
2024/03/15 13:36:50;;;;;;;2.40;1.90;;;;;;;;;;4992702;28;20435;-70
2024/03/15 13:39:27;;;;;;;3.50;1.60;;;;;;;;;;4992967;28;20411;-71
2024/03/15 13:41:57;;;;;;;5.60;2.13;;;;;;;;;;4992972;28;20473;-70
2024/03/15 13:44:25;;;;;;;2.70;1.70;;;;;;;;;;4994724;28;20490;-74
2024/03/15 13:46:51;;;;;;;3.17;1.70;;;;;;;;;;4992813;28;20501;-70
2024/03/15 13:49:17;;;;;;;3.93;1.83;;;;;;;;;;4992672;28;20411;-70
2024/03/15 13:51:43;;;;;;;4.00;2.00;;;;;;;;;;4992883;28;20822;-70
2024/03/15 13:54:10;;;;;;;7.10;2.30;;;;;;;;;;4995531;28;20469;-72
2024/03/15 13:56:36;;;;;;;7.17;2.20;;;;;;;;;;4996035;28;20431;-71
2024/03/15 13:59:03;;;;;;;5.03;2.10;;;;;;;;;;4996390;28;20415;-72
2024/03/15 14:01:29;;;;;;;8.10;2.43;;;;;;;;;;4996022;28;20913;-73
2024/03/15 14:03:58;;;;;;;4.67;2.00;;;;;;;;;;4996016;28;20415;-72
2024/03/15 14:06:26;;;;;;;2.50;1.67;;;;;;;;;;4995684;28;20466;-73
2024/03/15 14:08:53;;;;;;;5.77;2.40;;;;;;;;;;4996166;28;20415;-73
2024/03/15 14:11:19;;;;;;;4.47;2.03;;;;;;;;;;5012074;28;20441;-73
2024/03/15 14:13:48;;;;;;;2.30;1.67;;;;;;;;;;5003670;28;20407;-73
2024/03/15 14:16:16;;;;;;;2.73;1.70;;;;;;;;;;4995620;28;20508;-72
2024/03/15 14:18:42;;;;;;;6.03;2.40;;;;;;;;;;4995575;28;20404;-72
2024/03/15 14:21:08;;;;;;;3.63;1.80;;;;;;;;;;4994581;28;20419;-73
2024/03/15 14:23:34;;;;;;;4.30;2.10;;;;;;;;;;4996018;28;20419;-72
2024/03/15 14:26:00;;;;;;;6.20;2.00;;;;;;;;;;4995281;28;20446;-73
2024/03/15 14:28:28;;;;;;;3.30;2.03;;;;;;;;;;4995953;28;20411;-74
2024/03/15 14:30:54;;;;;;;8.10;2.40;;;;;;;;;;4995648;28;20407;-73
2024/03/15 14:33:20;;;;;;;8.47;2.10;;;;;;;;;;4994563;28;20423;-72
2024/03/15 14:35:46;;;;;;;2.07;1.70;;;;;;;;;;4995270;28;20430;-73
2024/03/15 14:38:13;;;;;;;2.63;1.90;;;;;;;;;;4996377;28;20437;-73
2024/03/15 14:40:39;;;;;;;5.53;2.17;;;;;;;;;;4995933;28;20411;-72
2024/03/15 14:43:06;;;;;;;3.77;1.90;;;;;;;;;;5005136;28;20532;-73
2024/03/15 14:45:35;;;;;;;5.83;1.90;;;;;;;;;;4995637;28;20450;-73
2024/03/15 14:48:03;;;;;;;5.13;2.30;;;;;;;;;;4993125;28;21051;-72
2024/03/15 14:50:30;;;;;;;6.30;1.87;;;;;;;;;;5000235;28;20486;-72
2024/03/15 14:53:00;;;;;;;6.80;3.00;;;;;;;;;;5000332;28;20546;-74
2024/03/15 14:55:27;;;;;;;4.93;2.20;;;;;;;;;;5001649;28;20427;-73
2024/03/15 14:57:53;;;;;;;9.57;1.97;;;;;;;;;;5001697;28;20418;-73
2024/03/15 15:00:19;;;;;;;3.10;1.73;;;;;;;;;;5000572;28;20466;-72
2024/03/15 15:02:47;;;;;;;3.93;2.20;;;;;;;;;;5000068;28;20407;-72
2024/03/15 15:05:14;;;;;;;4.57;1.87;;;;;;;;;;4998989;28;20411;-72
2024/03/15 15:07:40;;;;;;;3.03;1.57;;;;;;;;;;4995436;28;20470;-73
2024/03/15 15:10:12;;;;;;;4.87;2.10;;;;;;;;;;4995971;28;20415;-72
2024/03/15 15:12:39;;;;;;;3.77;1.60;;;;;;;;;;4995808;28;20414;-73
2024/03/15 15:15:07;;;;;;;3.70;1.70;;;;;;;;;;4995808;28;20418;-71
2024/03/15 15:17:34;;;;;;;4.33;2.10;;;;;;;;;;4994058;28;20953;-72
2024/03/15 15:20:07;;;;;;;4.27;1.77;;;;;;;;;;4994088;28;20418;-72
2024/03/15 15:22:33;;;;;;;3.37;2.33;;;;;;;;;;4994232;28;20442;-73
2024/03/15 15:24:59;;;;;;;3.93;1.80;;;;;;;;;;4993850;28;20866;-73
2024/03/15 15:27:25;;;;;;;3.10;1.73;;;;;;;;;;4993132;28;20505;-72
2024/03/15 15:29:51;;;;;;;5.90;1.87;;;;;;;;;;4993453;28;20419;-74
2024/03/15 15:32:17;;;;;;;3.10;1.73;;;;;;;;;;4992901;28;20412;-72
2024/03/15 15:34:43;;;;;;;6.40;2.33;;;;;;;;;;4994756;28;20433;-71
2024/03/15 15:37:10;;;;;;;4.30;1.93;;;;;;;;;;4994186;28;20953;-71
2024/03/15 15:39:36;;;;;;;4.23;1.90;;;;;;;;;;4994903;28;20407;-71
2024/03/15 15:42:02;;;;;;;3.53;1.60;;;;;;;;;;4994529;28;20407;-71
2024/03/15 15:44:28;;;;;;;3.97;2.00;;;;;;;;;;4994358;28;20411;-71
2024/03/15 15:46:54;;;;;;;3.07;2.07;;;;;;;;;;4992354;28;20880;-72
2024/03/15 15:49:23;;;;;;;6.13;2.20;;;;;;;;;;4994935;28;20442;-70
2024/03/15 15:51:49;;;;;;;6.13;2.07;;;;;;;;;;4993956;28;20415;-71
2024/03/15 15:54:16;;;;;;;3.73;2.03;;;;;;;;;;4994145;28;20962;-70
2024/03/15 15:56:43;;;;;;;5.83;2.10;;;;;;;;;;4994473;28;20449;-70
2024/03/15 15:59:10;;;;;;;4.10;2.27;;;;;;;;;;4994080;28;20415;-71
2024/03/15 16:01:36;;;;;;;6.50;2.43;;;;;;;;;;4992869;28;20423;-73
2024/03/15 16:04:03;;;;;;;5.20;2.03;;;;;;;;;;4993649;28;20411;-69
2024/03/15 16:06:29;;;;;;;5.00;1.90;;;;;;;;;;4993199;28;20486;-71
2024/03/15 16:08:55;;;;;;;3.53;1.77;;;;;;;;;;4993525;28;20561;-70
2024/03/15 16:11:21;;;;;;;5.10;1.80;;;;;;;;;;4993727;28;20917;-71
2024/03/15 16:13:47;;;;;;;5.27;1.73;;;;;;;;;;4993829;28;20407;-70
2024/03/15 16:16:13;;;;;;;4.23;2.07;;;;;;;;;;4993817;28;20450;-70
2024/03/15 16:18:39;;;;;;;4.87;1.83;;;;;;;;;;4992209;28;20429;-70
2024/03/15 16:21:05;;;;;;;2.90;1.90;;;;;;;;;;4992003;28;20427;-71
2024/03/15 16:23:34;;;;;;;4.10;2.10;;;;;;;;;;4993822;28;20411;-70
2024/03/15 16:26:01;;;;;;;4.00;1.90;;;;;;;;;;4991702;28;20453;-71
2024/03/15 16:28:27;;;;;;;4.80;2.00;;;;;;;;;;4991981;28;20432;-70
2024/03/15 16:30:53;;;;;;;6.43;2.13;;;;;;;;;;4992993;28;20504;-72
2024/03/15 16:33:19;;;;;;;5.53;2.60;;;;;;;;;;4997273;28;20450;-71
2024/03/15 16:35:48;;;;;;;8.50;2.63;;;;;;;;;;4997031;28;20449;-71
2024/03/15 16:38:14;;;;;;;2.70;2.30;;;;;;;;;;4993471;28;20497;-74
2024/03/15 16:40:40;;;;;;;2.73;1.83;;;;;;;;;;4993562;28;20489;-72
2024/03/15 16:43:06;;;;;;;3.53;2.00;;;;;;;;;;4993230;28;20420;-73
2024/03/15 16:45:33;;;;;;;4.97;2.17;;;;;;;;;;4993865;28;20534;-73
2024/03/15 16:47:59;;;;;;;5.70;2.17;;;;;;;;;;5001607;28;20469;-72
2024/03/15 16:50:26;;;;;;;9.83;2.00;;;;;;;;;;4999529;28;20511;-71
2024/03/15 16:52:52;;;;;;;6.03;2.10;;;;;;;;;;4992846;28;20411;-70
2024/03/15 16:55:18;;;;;;;4.87;2.23;;;;;;;;;;4994470;28;20907;-70
2024/03/15 16:57:46;;;;;;;5.00;2.33;;;;;;;;;;4993158;28;20977;-70
2024/03/15 17:00:20;;;;;;;3.50;2.00;;;;;;;;;;4993436;28;20418;-70
2024/03/15 17:02:47;;;;;;;6.73;2.17;;;;;;;;;;4995868;28;20808;-71
2024/03/15 17:05:13;;;;;;;5.00;1.97;;;;;;;;;;4996149;28;20553;-70
2024/03/15 17:07:39;;;;;;;8.43;2.10;;;;;;;;;;4992823;28;20474;-69
2024/03/15 17:10:06;;;;;;;2.40;1.70;;;;;;;;;;4985001;28;20415;-72
2024/03/15 17:12:35;;;;;;;5.97;2.03;;;;;;;;;;5000379;28;20538;-73
2024/03/15 17:15:03;;;;;;;5.40;2.10;;;;;;;;;;5013821;28;20417;-75
2024/03/15 17:17:29;;;;;;;3.03;2.13;;;;;;;;;;5010613;28;20527;-72
2024/03/15 17:19:56;;;;;;;3.00;1.60;;;;;;;;;;5013055;28;20414;-73
2024/03/15 17:22:22;;;;;;;8.83;2.60;;;;;;;;;;5012574;28;20893;-71
2024/03/15 17:24:49;;;;;;;3.63;2.00;;;;;;;;;;5013072;28;20410;-71
2024/03/15 17:27:15;;;;;;;9.20;2.90;;;;;;;;;;5012786;28;20802;-71
2024/03/15 17:29:42;;;;;;;5.27;2.30;;;;;;;;;;5014911;28;20755;-70
2024/03/15 17:32:08;;;;;;;7.00;2.90;;;;;;;;;;5015113;28;20476;-70
2024/03/15 17:34:34;;;;;;;6.63;2.67;;;;;;;;;;5016530;28;20497;-71
2024/03/15 17:37:00;;;;;;;5.97;3.57;;;;;;;;;;5016095;28;20464;-70
2024/03/15 17:39:26;;;;;;;6.90;3.10;;;;;;;;;;5016094;28;20977;-70
2024/03/15 17:41:52;;;;;;;7.80;2.90;;;;;;;;;;5015911;28;20492;-72
2024/03/15 17:44:18;;;;;;;9.13;3.10;;;;;;;;;;5015871;28;20450;-72
2024/03/15 17:46:44;;;;;;;3.23;2.10;;;;;;;;;;5015212;28;20466;-71
2024/03/15 17:49:10;;;;;;;7.47;2.97;;;;;;;;;;5017057;28;20800;-70
2024/03/15 17:51:36;;;;;;;5.83;2.73;;;;;;;;;;5018179;28;20410;-71
2024/03/15 17:54:02;;;;;;;6.33;2.23;;;;;;;;;;5017058;28;20502;-72
2024/03/15 17:56:28;;;;;;;9.80;2.30;;;;;;;;;;5016349;28;20425;-70
2024/03/15 17:58:54;;;;;;;4.17;2.50;;;;;;;;;;5017115;28;20420;-73
2024/03/15 18:01:23;;;;;;;6.90;2.20;;;;;;;;;;5015583;28;20418;-71
2024/03/15 18:03:49;;;;;;;4.37;2.60;;;;;;;;;;5015848;28;20438;-70
2024/03/15 18:06:15;;;;;;;6.70;3.13;;;;;;;;;;5015577;28;20503;-70
2024/03/15 18:08:42;;;;;;;7.10;2.90;;;;;;;;;;5015792;28;20406;-70
2024/03/15 18:11:08;;;;;;;7.47;2.70;;;;;;;;;;5014390;28;20501;-72
2024/03/15 18:13:34;;;;;;;3.33;2.57;;;;;;;;;;5015956;28;20835;-70
2024/03/15 18:16:00;;;;;;;7.83;2.43;;;;;;;;;;5125894;23;20491;-76
2024/03/15 18:18:26;;;;;;;6.27;2.60;;;;;;;;;;4994805;28;20411;-76
2024/03/15 18:20:52;;;;;;;6.67;2.77;;;;;;;;;;4994695;28;20403;-77
2024/03/15 18:23:18;;;;;;;7.50;3.77;;;;;;;;;;4994907;28;20403;-76
2024/03/15 18:25:47;;;;;;;7.33;3.47;;;;;;;;;;4994568;28;20435;-77
2024/03/15 18:28:13;;;;;;;5.50;2.60;;;;;;;;;;4994483;28;20467;-77
2024/03/15 18:30:39;;;;;;;8.10;3.40;;;;;;;;;;4994658;28;20766;-77
2024/03/15 18:33:05;;;;;;;7.80;3.03;;;;;;;;;;4994716;28;20970;-77
2024/03/15 18:35:31;;;;;;;10.73;3.13;;;;;;;;;;4994405;28;20494;-77
2024/03/15 18:37:57;;;;;;;6.07;3.43;;;;;;;;;;4994507;28;20502;-75
2024/03/15 18:40:24;;;;;;;6.20;3.00;;;;;;;;;;4993353;28;20502;-76
2024/03/15 18:42:51;;;;;;;3.73;2.30;;;;;;;;;;4994527;28;20422;-76
2024/03/15 18:45:17;;;;;;;5.40;2.70;;;;;;;;;;4993214;28;20586;-77
2024/03/15 18:47:43;;;;;;;4.87;2.97;;;;;;;;;;4992005;28;20513;-76
2024/03/15 18:50:11;;;;;;;7.83;3.17;;;;;;;;;;4999659;28;20821;-75
2024/03/15 18:52:37;;;;;;;10.30;3.30;;;;;;;;;;5010860;28;20418;-76
2024/03/15 18:55:08;;;;;;;7.60;3.40;;;;;;;;;;5013021;28;20485;-76
2024/03/15 18:57:34;;;;;;;13.00;3.60;;;;;;;;;;5013725;28;20488;-75
2024/03/15 19:00:10;;;;;;;6.87;3.47;;;;;;;;;;5011569;28;20429;-75
2024/03/15 19:02:38;;;;;;;8.00;4.40;;;;;;;;;;5013894;28;20947;-76
2024/03/15 19:05:04;;;;;;;12.47;4.87;;;;;;;;;;5013523;28;20410;-76
2024/03/15 19:07:30;;;;;;;10.80;5.17;;;;;;;;;;5013166;28;20464;-76
2024/03/15 19:09:57;;;;;;;5.97;3.63;;;;;;;;;;5013639;28;20859;-75
2024/03/15 19:12:23;;;;;;;7.10;3.73;;;;;;;;;;5013689;28;20406;-76
2024/03/15 19:14:49;;;;;;;9.57;5.23;;;;;;;;;;5013779;28;20425;-77
2024/03/15 19:17:15;;;;;;;10.97;5.43;;;;;;;;;;5013081;28;20464;-76
2024/03/15 19:19:41;;;;;;;10.20;5.13;;;;;;;;;;5013366;28;20418;-77
2024/03/15 19:22:07;;;;;;;7.67;4.10;;;;;;;;;;5013268;28;20489;-76
2024/03/15 19:24:33;;;;;;;9.37;4.60;;;;;;;;;;5013218;28;20410;-76
2024/03/15 19:26:59;;;;;;;10.33;4.40;;;;;;;;;;5013026;28;20466;-76
2024/03/15 19:29:26;;;;;;;13.30;5.00;;;;;;;;;;5013607;28;20402;-77
2024/03/15 19:31:52;;;;;;;11.20;3.93;;;;;;;;;;5013335;28;20434;-75
2024/03/15 19:34:18;;;;;;;6.33;2.80;;;;;;;;;;5013301;28;20492;-77
2024/03/15 19:36:47;;;;;;;5.43;2.50;;;;;;;;;;5013123;28;20488;-77
2024/03/15 19:39:14;;;;;;;7.73;3.00;;;;;;;;;;5013138;28;20409;-76
2024/03/15 19:41:43;;;;;;;9.17;3.70;;;;;;;;;;5013093;28;20414;-76
2024/03/15 19:44:09;;;;;;;6.47;2.53;;;;;;;;;;5013049;28;20472;-76
2024/03/15 19:46:35;;;;;;;5.77;3.67;;;;;;;;;;5012763;28;20588;-76
2024/03/15 19:49:01;;;;;;;10.40;3.03;;;;;;;;;;5012775;28;20414;-76
2024/03/15 19:51:28;;;;;;;7.90;3.50;;;;;;;;;;5012641;28;20480;-76
2024/03/15 19:53:54;;;;;;;6.70;3.83;;;;;;;;;;5012824;28;20418;-77
2024/03/15 19:56:20;;;;;;;10.97;3.90;;;;;;;;;;5013012;28;20437;-76
2024/03/15 19:58:46;;;;;;;11.07;4.30;;;;;;;;;;5013009;28;20414;-76
2024/03/15 20:01:12;;;;;;;7.70;3.93;;;;;;;;;;5012939;28;20920;-75
2024/03/15 20:03:38;;;;;;;4.03;3.50;;;;;;;;;;5012875;28;20406;-75
2024/03/15 20:06:05;;;;;;;6.90;3.80;;;;;;;;;;5011194;28;20433;-76
2024/03/15 20:08:31;;;;;;;7.70;4.50;;;;;;;;;;5012767;28;20410;-75
2024/03/15 20:10:57;;;;;;;7.43;3.73;;;;;;;;;;5012658;28;20797;-75
2024/03/15 20:13:23;;;;;;;8.30;4.07;;;;;;;;;;5012815;28;20414;-76
2024/03/15 20:15:49;;;;;;;7.83;3.73;;;;;;;;;;5012335;28;20434;-76
2024/03/15 20:18:15;;;;;;;9.03;3.67;;;;;;;;;;5012721;28;20468;-75
2024/03/15 20:20:41;;;;;;;6.27;3.00;;;;;;;;;;5012943;28;20775;-76
2024/03/15 20:23:07;;;;;;;4.63;2.90;;;;;;;;;;5012795;28;20410;-75
2024/03/15 20:25:34;;;;;;;8.90;4.27;;;;;;;;;;5012655;28;20417;-76
2024/03/15 20:28:02;;;;;;;4.80;2.90;;;;;;;;;;5013103;28;20468;-76
2024/03/15 20:30:28;;;;;;;5.33;3.40;;;;;;;;;;5012946;28;20908;-76
2024/03/15 20:32:54;;;;;;;9.83;3.13;;;;;;;;;;5013132;28;20931;-76
2024/03/15 20:35:23;;;;;;;9.80;3.40;;;;;;;;;;5012386;28;20406;-76
2024/03/15 20:37:49;;;;;;;4.77;3.03;;;;;;;;;;5012327;28;20469;-76
2024/03/15 20:40:19;;;;;;;6.73;2.93;;;;;;;;;;5012562;28;20417;-76
2024/03/15 20:42:45;;;;;;;10.07;3.43;;;;;;;;;;5012602;28;20414;-75
2024/03/15 20:45:11;;;;;;;8.30;4.20;;;;;;;;;;5012195;28;20781;-76